createdAt,value
2018-03-31T00:01:38.475Z,79.00
2018-03-31T00:04:07.115Z,79.50
2018-03-31T00:06:35.235Z,79.50
2018-03-31T00:09:03.095Z,79.90
2018-03-31T00:11:30.934Z,80.00
2018-03-31T00:13:58.774Z,79.90
2018-03-31T00:16:26.575Z,79.80
2018-03-31T00:18:54.374Z,79.60
2018-03-31T00:21:22.412Z,79.80
2018-03-31T00:23:50.602Z,79.90
2018-03-31T00:26:18.807Z,79.60
2018-03-31T00:28:46.814Z,79.90
2018-03-31T00:31:15.542Z,81.00
2018-03-31T00:33:43.651Z,80.30
2018-03-31T00:36:11.456Z,80.00
2018-03-31T00:38:39.311Z,80.30
2018-03-31T00:41:07.220Z,80.30
2018-03-31T00:43:36.082Z,80.20
2018-03-31T00:46:04.181Z,80.20
2018-03-31T00:48:32.836Z,79.90
2018-03-31T00:51:00.830Z,79.90
2018-03-31T00:53:29.444Z,79.60
2018-03-31T00:55:58.020Z,79.90
2018-03-31T00:58:25.851Z,79.90
2018-03-31T01:00:54.445Z,79.60
2018-03-31T01:03:22.454Z,79.60
2018-03-31T01:05:50.874Z,79.70
2018-03-31T01:08:18.818Z,79.00
2018-03-31T01:10:48.818Z,79.20
2018-03-31T01:13:17.856Z,79.60
2018-03-31T01:15:45.798Z,79.50
2018-03-31T01:18:14.206Z,78.90
2018-03-31T01:20:42.077Z,79.30
2018-03-31T01:23:10.842Z,79.40
2018-03-31T01:25:38.677Z,79.40
2018-03-31T01:28:06.567Z,79.40
2018-03-31T01:30:34.633Z,79.40
2018-03-31T01:33:02.439Z,79.20
2018-03-31T01:35:30.274Z,79.50
2018-03-31T01:37:58.070Z,79.30
2018-03-31T01:40:26.106Z,79.20
2018-03-31T01:42:53.910Z,79.30
2018-03-31T01:45:21.742Z,79.10
2018-03-31T01:47:49.654Z,79.50
2018-03-31T01:50:17.615Z,79.40
2018-03-31T01:52:47.510Z,79.60
2018-03-31T01:55:16.300Z,79.60
2018-03-31T01:57:44.338Z,79.60
2018-03-31T02:00:12.222Z,79.40
2018-03-31T02:02:40.031Z,79.30
2018-03-31T02:05:08.594Z,79.90
2018-03-31T02:07:36.598Z,79.80
2018-03-31T02:10:04.586Z,79.80
2018-03-31T02:12:32.458Z,80.00
2018-03-31T02:15:00.253Z,79.40
2018-03-31T02:17:28.379Z,79.20
2018-03-31T02:19:56.177Z,79.30
2018-03-31T02:22:23.973Z,79.00
2018-03-31T02:24:51.802Z,78.80
2018-03-31T02:27:19.775Z,79.10
2018-03-31T02:29:50.987Z,79.10
2018-03-31T02:32:19.174Z,78.80
2018-03-31T02:34:47.614Z,78.60
2018-03-31T02:37:15.603Z,78.40
2018-03-31T02:39:43.971Z,78.20
2018-03-31T02:42:11.904Z,78.40
2018-03-31T02:44:39.808Z,78.80
2018-03-31T02:47:07.607Z,79.10
2018-03-31T02:49:36.089Z,79.50
2018-03-31T02:52:03.918Z,79.80
2018-03-31T02:54:32.517Z,79.50
2018-03-31T02:57:00.355Z,79.50
2018-03-31T02:59:28.165Z,79.90
2018-03-31T03:01:56.178Z,79.90
2018-03-31T03:04:23.983Z,79.90
2018-03-31T03:06:51.850Z,80.20
2018-03-31T03:09:19.868Z,80.30
2018-03-31T03:11:49.179Z,80.70
2018-03-31T03:14:17.931Z,80.70
2018-03-31T03:16:45.979Z,80.80
2018-03-31T03:19:13.731Z,80.60
2018-03-31T03:21:42.079Z,80.70
2018-03-31T03:24:09.760Z,80.70
2018-03-31T03:26:37.558Z,80.80
2018-03-31T03:29:05.432Z,80.80
2018-03-31T03:31:33.199Z,80.50
2018-03-31T03:34:01.626Z,81.30
2018-03-31T03:36:29.225Z,80.80
2018-03-31T03:38:56.827Z,81.20
2018-03-31T03:41:24.391Z,81.10
2018-03-31T03:43:52.012Z,81.40
2018-03-31T03:46:19.730Z,80.80
2018-03-31T03:48:47.535Z,80.90
2018-03-31T03:51:16.689Z,80.50
2018-03-31T03:53:44.434Z,80.50
2018-03-31T03:56:12.067Z,80.60
2018-03-31T03:58:39.729Z,80.70
2018-03-31T04:01:07.418Z,80.70
2018-03-31T04:03:35.786Z,80.70
2018-03-31T04:06:04.324Z,80.80
2018-03-31T04:08:31.974Z,80.70
2018-03-31T04:10:59.572Z,81.00
2018-03-31T04:13:27.894Z,80.70
2018-03-31T04:15:55.502Z,80.70
2018-03-31T04:18:23.058Z,80.60
2018-03-31T04:20:51.393Z,80.30
2018-03-31T04:23:19.200Z,80.20
2018-03-31T04:25:47.264Z,80.00
2018-03-31T04:28:15.187Z,79.80
2018-03-31T04:30:44.783Z,81.50
2018-03-31T04:33:12.927Z,80.90
2018-03-31T04:35:40.682Z,80.90
2018-03-31T04:38:08.352Z,80.60
2018-03-31T04:40:36.215Z,80.70
2018-03-31T04:43:03.846Z,80.40
2018-03-31T04:45:31.436Z,80.70
2018-03-31T04:47:59.026Z,80.60
2018-03-31T04:50:26.583Z,80.50
2018-03-31T04:52:54.183Z,80.40
2018-03-31T04:55:22.042Z,80.40
2018-03-31T04:57:50.980Z,80.50
2018-03-31T05:00:18.790Z,80.40
2018-03-31T05:02:46.934Z,80.00
2018-03-31T05:05:14.669Z,80.60
2018-03-31T05:07:43.181Z,80.50
2018-03-31T05:10:10.827Z,80.50
2018-03-31T05:12:38.444Z,80.80
2018-03-31T05:15:06.065Z,80.80
2018-03-31T05:17:33.662Z,80.20
2018-03-31T05:20:01.270Z,80.60
2018-03-31T05:22:29.707Z,80.50
2018-03-31T05:24:57.373Z,80.40
2018-03-31T05:27:24.939Z,80.20
2018-03-31T05:29:53.374Z,80.30
2018-03-31T05:32:21.034Z,80.30
2018-03-31T05:34:49.447Z,80.00
2018-03-31T05:37:17.384Z,80.00
2018-03-31T05:39:44.951Z,80.30
2018-03-31T05:42:12.749Z,80.30
2018-03-31T05:44:41.065Z,80.40
2018-03-31T05:47:08.718Z,80.40
2018-03-31T05:49:36.392Z,80.20
2018-03-31T05:52:04.275Z,80.20
2018-03-31T05:54:32.091Z,80.00
2018-03-31T05:56:59.686Z,79.70
2018-03-31T05:59:27.255Z,79.10
2018-03-31T06:01:54.856Z,78.50
2018-03-31T06:04:22.739Z,79.20
2018-03-31T06:06:50.307Z,79.00
2018-03-31T06:09:18.691Z,78.60
2018-03-31T06:11:46.934Z,78.70
2018-03-31T06:14:14.611Z,79.00
2018-03-31T06:16:42.270Z,79.00
2018-03-31T06:19:09.899Z,78.80
2018-03-31T06:21:37.458Z,78.90
2018-03-31T06:24:05.103Z,78.80
2018-03-31T06:26:32.687Z,78.90
2018-03-31T06:29:00.342Z,78.70
2018-03-31T06:31:27.985Z,78.90
2018-03-31T06:33:56.350Z,79.30
2018-03-31T06:36:24.133Z,79.20
2018-03-31T06:38:51.700Z,78.90
2018-03-31T06:41:19.386Z,78.80
2018-03-31T06:43:47.152Z,78.30
2018-03-31T06:46:15.838Z,78.90
2018-03-31T06:48:43.575Z,78.90
2018-03-31T06:51:11.186Z,79.10
2018-03-31T06:53:38.746Z,78.90
2018-03-31T06:56:06.352Z,79.00
2018-03-31T06:58:34.016Z,78.20
2018-03-31T07:01:01.632Z,78.40
2018-03-31T07:03:29.197Z,78.30
2018-03-31T07:05:56.890Z,78.30
2018-03-31T07:08:24.455Z,78.20
2018-03-31T07:10:52.006Z,77.80
2018-03-31T07:13:22.403Z,77.60
2018-03-31T07:15:50.074Z,77.60
2018-03-31T07:18:17.739Z,77.10
2018-03-31T07:20:45.372Z,77.50
2018-03-31T07:23:13.148Z,77.20
2018-03-31T07:25:40.743Z,76.60
2018-03-31T07:28:08.325Z,76.60
2018-03-31T07:30:35.974Z,76.80
2018-03-31T07:33:04.494Z,77.20
2018-03-31T07:35:32.086Z,77.20
2018-03-31T07:37:59.679Z,77.40
2018-03-31T07:40:27.618Z,77.10
2018-03-31T07:42:55.179Z,77.00
2018-03-31T07:45:22.778Z,76.50
2018-03-31T07:47:50.371Z,76.60
2018-03-31T07:50:18.000Z,76.40
2018-03-31T07:52:45.695Z,76.10
2018-03-31T07:55:13.798Z,75.90
2018-03-31T07:57:41.419Z,76.00
2018-03-31T08:00:08.979Z,75.90
2018-03-31T08:02:36.638Z,76.10
2018-03-31T08:05:04.560Z,76.20
2018-03-31T08:07:32.161Z,76.10
2018-03-31T08:09:59.875Z,76.30
2018-03-31T08:12:28.728Z,75.00
2018-03-31T08:14:56.286Z,75.90
2018-03-31T08:17:24.623Z,75.70
2018-03-31T08:19:52.214Z,75.70
2018-03-31T08:22:19.770Z,75.80
2018-03-31T08:24:47.506Z,75.20
2018-03-31T08:27:15.216Z,75.00
2018-03-31T08:29:42.894Z,75.20
2018-03-31T08:32:10.553Z,75.20
2018-03-31T08:34:38.115Z,73.80
2018-03-31T08:37:05.698Z,74.80
2018-03-31T08:39:33.481Z,74.60
2018-03-31T08:42:01.288Z,73.60
2018-03-31T08:44:28.971Z,73.70
2018-03-31T08:46:56.529Z,73.90
2018-03-31T08:49:24.878Z,73.90
2018-03-31T08:51:52.438Z,73.90
2018-03-31T08:54:20.030Z,74.10
2018-03-31T08:56:47.647Z,74.00
2018-03-31T08:59:15.668Z,73.70
2018-03-31T09:01:43.282Z,73.40
2018-03-31T09:04:10.878Z,73.40
2018-03-31T09:06:38.533Z,73.50
2018-03-31T09:09:06.920Z,73.50
2018-03-31T09:11:34.950Z,73.50
2018-03-31T09:14:02.683Z,73.10
2018-03-31T09:16:30.278Z,73.00
2018-03-31T09:18:57.870Z,73.20
2018-03-31T09:21:25.716Z,72.40
2018-03-31T09:23:53.272Z,72.20
2018-03-31T09:26:21.680Z,72.10
2018-03-31T09:28:50.105Z,72.80
2018-03-31T09:31:17.799Z,72.80
2018-03-31T09:33:45.472Z,72.50
2018-03-31T09:36:13.334Z,72.60
2018-03-31T09:38:41.058Z,72.80
2018-03-31T09:41:08.630Z,72.70
2018-03-31T09:43:36.416Z,72.30
2018-03-31T09:46:04.828Z,72.80
2018-03-31T09:48:32.479Z,72.60
2018-03-31T09:51:00.874Z,72.00
2018-03-31T09:53:28.492Z,72.00
2018-03-31T09:55:56.451Z,72.20
2018-03-31T09:58:24.055Z,72.30
2018-03-31T10:03:44.086Z,70.50
2018-03-31T10:06:11.679Z,71.70
2018-03-31T10:08:39.314Z,70.70
2018-03-31T10:11:06.878Z,70.50
2018-03-31T10:13:35.240Z,70.40
2018-03-31T10:16:02.884Z,70.40
2018-03-31T10:18:30.490Z,71.10
2018-03-31T10:20:58.055Z,70.70
2018-03-31T10:23:25.657Z,71.10
2018-03-31T10:25:53.491Z,70.50
2018-03-31T10:28:21.050Z,69.50
2018-03-31T10:30:48.698Z,71.00
2018-03-31T10:33:16.638Z,70.50
2018-03-31T10:35:45.139Z,70.90
2018-03-31T10:38:13.470Z,70.90
2018-03-31T10:40:41.840Z,69.30
2018-03-31T10:43:09.455Z,68.90
2018-03-31T10:45:37.019Z,69.50
2018-03-31T10:48:04.650Z,68.10
2018-03-31T10:50:33.386Z,68.80
2018-03-31T10:53:01.782Z,68.00
2018-03-31T10:55:29.329Z,68.00
2018-03-31T10:57:56.922Z,68.60
2018-03-31T11:00:25.278Z,67.90
2018-03-31T11:02:52.838Z,67.80
2018-03-31T11:05:20.607Z,67.80
2018-03-31T11:07:48.262Z,67.70
2018-03-31T11:10:15.983Z,67.70
2018-03-31T11:12:43.686Z,67.80
2018-03-31T11:15:11.283Z,69.00
2018-03-31T11:17:38.843Z,68.70
2018-03-31T11:20:07.258Z,69.90
2018-03-31T11:22:34.993Z,69.90
2018-03-31T11:25:02.625Z,68.60
2018-03-31T11:27:31.259Z,69.00
2018-03-31T11:29:58.810Z,69.00
2018-03-31T11:32:27.130Z,69.70
2018-03-31T11:34:54.721Z,69.70
2018-03-31T11:37:22.323Z,70.20
2018-03-31T11:39:50.007Z,69.90
2018-03-31T11:42:17.838Z,70.60
2018-03-31T11:44:45.994Z,70.20
2018-03-31T11:47:13.880Z,70.80
2018-03-31T11:49:41.491Z,71.40
2018-03-31T11:52:09.267Z,71.10
2018-03-31T11:54:37.024Z,70.90
2018-03-31T11:57:05.430Z,71.00
2018-03-31T11:59:33.074Z,70.90
2018-03-31T12:02:00.622Z,71.20
2018-03-31T12:04:28.206Z,71.10
2018-03-31T12:06:55.768Z,71.60
2018-03-31T12:09:24.403Z,71.30
2018-03-31T12:11:51.966Z,71.30
2018-03-31T12:14:20.410Z,71.10
2018-03-31T12:16:48.147Z,71.00
2018-03-31T12:19:16.622Z,70.50
2018-03-31T12:21:44.250Z,70.40
2018-03-31T12:24:11.850Z,70.20
2018-03-31T12:26:39.596Z,71.00
2018-03-31T12:29:07.194Z,71.40
2018-03-31T12:31:35.635Z,70.50
2018-03-31T12:34:03.197Z,70.50
2018-03-31T12:36:31.551Z,69.50
2018-03-31T12:38:59.106Z,69.40
2018-03-31T12:41:26.667Z,70.40
2018-03-31T12:43:55.043Z,69.60
2018-03-31T12:46:22.635Z,69.50
2018-03-31T12:48:50.391Z,67.60
2018-03-31T12:51:18.047Z,68.10
2018-03-31T12:53:45.880Z,68.20
2018-03-31T12:56:13.579Z,69.80
2018-03-31T12:58:41.150Z,69.70
2018-03-31T13:01:08.739Z,69.70
2018-03-31T13:03:36.403Z,69.80
2018-03-31T13:06:04.154Z,69.90
2018-03-31T13:08:31.779Z,69.80
2018-03-31T13:10:59.339Z,69.60
2018-03-31T13:13:26.934Z,70.10
2018-03-31T13:15:54.486Z,70.10
2018-03-31T13:18:22.847Z,70.40
2018-03-31T13:20:50.534Z,70.30
2018-03-31T13:23:18.277Z,69.90
2018-03-31T13:25:46.065Z,69.90
2018-03-31T13:28:14.594Z,71.40
2018-03-31T13:30:42.190Z,71.40
2018-03-31T13:33:09.764Z,71.20
2018-03-31T13:35:37.407Z,71.00
2018-03-31T13:38:05.069Z,71.10
2018-03-31T13:40:33.463Z,70.70
2018-03-31T13:43:01.132Z,70.70
2018-03-31T13:45:28.694Z,70.70
2018-03-31T13:47:57.042Z,70.30
2018-03-31T13:50:24.637Z,70.30
2018-03-31T13:52:52.222Z,70.60
2018-03-31T13:55:20.022Z,70.20
2018-03-31T13:57:47.842Z,70.30
2018-03-31T14:00:16.388Z,72.20
2018-03-31T14:02:44.597Z,72.20
2018-03-31T14:05:13.024Z,72.80
2018-03-31T14:07:40.727Z,72.80
2018-03-31T14:10:08.373Z,73.70
2018-03-31T14:12:35.990Z,73.80
2018-03-31T14:15:03.595Z,74.00
2018-03-31T14:17:31.916Z,74.50
2018-03-31T14:19:59.478Z,74.50
2018-03-31T14:22:27.839Z,75.50
2018-03-31T14:24:55.404Z,75.50
2018-03-31T14:27:23.461Z,76.20
2018-03-31T14:29:51.818Z,77.60
2018-03-31T14:32:19.479Z,77.60
2018-03-31T14:34:47.127Z,78.10
2018-03-31T14:37:14.858Z,78.50
2018-03-31T14:39:42.437Z,79.20
2018-03-31T14:42:10.046Z,79.90
2018-03-31T14:44:37.607Z,79.90
2018-03-31T14:47:05.309Z,80.80
2018-03-31T14:49:32.874Z,81.30
2018-03-31T14:52:00.573Z,81.10
2018-03-31T14:54:28.118Z,81.60
2018-03-31T14:56:56.475Z,81.60
2018-03-31T14:59:24.036Z,81.50
2018-03-31T15:01:51.627Z,81.50
2018-03-31T15:04:19.517Z,81.60
2018-03-31T15:06:47.296Z,81.90
2018-03-31T15:09:15.298Z,82.60
2018-03-31T15:11:43.278Z,83.20
2018-03-31T15:14:11.138Z,82.70
2018-03-31T15:16:38.713Z,82.80
2018-03-31T15:19:06.363Z,83.10
2018-03-31T15:21:34.002Z,83.50
2018-03-31T15:24:01.733Z,83.50
2018-03-31T15:26:29.297Z,82.70
2018-03-31T15:28:57.650Z,83.50
2018-03-31T15:31:25.238Z,83.50
2018-03-31T15:33:52.987Z,82.50
2018-03-31T15:36:20.658Z,82.90
2018-03-31T15:38:48.331Z,84.10
2018-03-31T15:41:16.363Z,83.90
2018-03-31T15:43:44.166Z,84.50
2018-03-31T15:46:11.795Z,84.50
2018-03-31T15:48:39.377Z,85.20
2018-03-31T15:51:07.022Z,85.00
2018-03-31T15:53:34.884Z,85.60
2018-03-31T15:56:02.538Z,86.10
2018-03-31T15:58:30.171Z,86.20
2018-03-31T16:00:57.850Z,86.40
2018-03-31T16:03:25.437Z,86.80
2018-03-31T16:05:52.994Z,86.70
2018-03-31T16:08:21.439Z,86.80
2018-03-31T16:10:49.209Z,86.60
2018-03-31T16:13:17.027Z,86.90
2018-03-31T16:15:44.863Z,87.00
2018-03-31T16:18:12.780Z,87.20
2018-03-31T16:20:40.342Z,86.30
2018-03-31T16:23:08.668Z,87.00
2018-03-31T16:25:36.400Z,87.00
2018-03-31T16:28:05.066Z,87.80
2018-03-31T16:30:32.718Z,87.70
2018-03-31T16:33:00.402Z,87.50
2018-03-31T16:35:28.035Z,87.50
2018-03-31T16:37:55.631Z,88.10
2018-03-31T16:40:23.191Z,88.00
2018-03-31T16:42:51.228Z,88.00
2018-03-31T16:45:18.891Z,87.80
2018-03-31T16:47:47.618Z,88.40
2018-03-31T16:50:15.226Z,88.30
2018-03-31T16:52:42.923Z,89.00
2018-03-31T16:55:11.256Z,90.00
2018-03-31T16:57:38.851Z,89.50
2018-03-31T17:00:06.447Z,89.80
2018-03-31T17:02:34.233Z,89.80
2018-03-31T17:05:01.794Z,89.60
2018-03-31T17:07:30.318Z,88.80
2018-03-31T17:09:57.874Z,88.80
2018-03-31T17:12:26.193Z,88.40
2018-03-31T17:14:53.802Z,88.30
2018-03-31T17:17:21.681Z,88.00
2018-03-31T17:19:49.364Z,89.00
2018-03-31T17:22:17.156Z,87.80
2018-03-31T17:24:45.152Z,87.70
2018-03-31T17:27:13.076Z,87.30
2018-03-31T17:29:40.659Z,87.50
2018-03-31T17:32:08.326Z,87.60
2018-03-31T17:34:36.082Z,88.10
2018-03-31T17:37:04.508Z,88.20
2018-03-31T17:39:32.197Z,88.10
2018-03-31T17:41:59.763Z,88.20
2018-03-31T17:44:28.122Z,88.10
2018-03-31T17:46:55.674Z,88.00
2018-03-31T17:49:23.262Z,88.00
2018-03-31T17:51:51.049Z,88.30
2018-03-31T17:54:18.796Z,88.40
2018-03-31T17:56:47.346Z,89.90
2018-03-31T17:59:15.255Z,89.90
2018-03-31T18:01:43.342Z,89.50
2018-03-31T18:04:10.946Z,89.20
2018-03-31T18:06:38.535Z,89.20
2018-03-31T18:09:06.208Z,89.40
2018-03-31T18:11:34.026Z,89.60
2018-03-31T18:14:01.718Z,89.70
2018-03-31T18:16:29.312Z,89.70
2018-03-31T18:18:56.907Z,89.90
2018-03-31T18:21:30.708Z,90.20
2018-03-31T18:23:58.470Z,90.20
2018-03-31T18:26:26.026Z,90.10
2018-03-31T18:28:54.355Z,90.00
2018-03-31T18:31:21.947Z,90.00
2018-03-31T18:33:49.625Z,90.20
2018-03-31T18:36:17.510Z,90.60
2018-03-31T18:38:45.555Z,90.60
2018-03-31T18:41:13.990Z,90.60
2018-03-31T18:43:41.567Z,90.60
2018-03-31T18:46:09.164Z,90.80
2018-03-31T18:48:37.591Z,90.90
2018-03-31T18:51:05.369Z,90.80
2018-03-31T18:53:33.123Z,90.90
2018-03-31T18:56:01.573Z,91.00
2018-03-31T18:58:29.170Z,90.70
2018-03-31T19:00:56.753Z,90.90
2018-03-31T19:03:24.354Z,90.80
2018-03-31T19:05:52.011Z,90.80
2018-03-31T19:08:19.659Z,90.70
2018-03-31T19:10:48.718Z,90.80
2018-03-31T19:13:16.342Z,90.80
2018-03-31T19:15:44.812Z,90.70
2018-03-31T19:18:12.491Z,90.60
2018-03-31T19:20:40.186Z,90.80
2018-03-31T19:23:07.752Z,90.90
2018-03-31T19:25:36.210Z,90.80
2018-03-31T19:28:04.802Z,90.50
2018-03-31T19:30:37.860Z,90.50
2018-03-31T19:33:05.550Z,90.60
2018-03-31T19:35:39.642Z,90.60
2018-03-31T19:38:07.274Z,90.60
2018-03-31T19:40:35.008Z,90.70
2018-03-31T19:43:02.575Z,91.00
2018-03-31T19:45:30.165Z,90.90
2018-03-31T19:47:57.722Z,90.80
2018-03-31T19:50:26.078Z,90.70
2018-03-31T19:52:53.671Z,90.70
2018-03-31T19:55:21.245Z,90.70
2018-03-31T19:57:49.010Z,90.70
2018-03-31T20:00:16.699Z,90.80
2018-03-31T20:02:44.367Z,90.80
2018-03-31T20:05:12.083Z,90.60
2018-03-31T20:07:39.657Z,90.50
2018-03-31T20:10:07.381Z,90.40
2018-03-31T20:12:35.127Z,90.30
2018-03-31T20:15:02.732Z,90.60
2018-03-31T20:17:30.618Z,90.70
2018-03-31T20:19:58.178Z,90.80
2018-03-31T20:22:26.498Z,90.70
2018-03-31T20:24:54.095Z,90.70
2018-03-31T20:27:21.816Z,90.60
2018-03-31T20:29:49.764Z,90.40
2018-03-31T20:32:17.580Z,90.50
2018-03-31T20:34:45.851Z,90.60
2018-03-31T20:37:13.669Z,90.80
2018-03-31T20:39:41.263Z,90.70
2018-03-31T20:42:08.897Z,90.80
2018-03-31T20:44:37.315Z,90.50
2018-03-31T20:47:05.942Z,90.20
2018-03-31T20:49:33.641Z,90.20
2018-03-31T20:52:01.315Z,90.30
2018-03-31T20:54:28.999Z,89.90
2018-03-31T20:56:56.546Z,90.00
2018-03-31T20:59:24.906Z,89.90
2018-03-31T21:01:52.489Z,89.90
2018-03-31T21:04:20.145Z,89.60
2018-03-31T21:06:48.449Z,90.00
2018-03-31T21:09:16.341Z,89.30
2018-03-31T21:11:44.079Z,89.00
2018-03-31T21:14:11.682Z,89.30
2018-03-31T21:16:39.302Z,89.20
2018-03-31T21:19:07.400Z,89.40
2018-03-31T21:21:35.057Z,90.00
2018-03-31T21:24:03.394Z,90.50
2018-03-31T21:26:30.986Z,90.50
2018-03-31T21:28:58.546Z,90.80
2018-03-31T21:31:26.975Z,90.90
2018-03-31T21:33:54.550Z,90.90
2018-03-31T21:36:22.136Z,91.00
2018-03-31T21:38:49.831Z,91.10
2018-03-31T21:41:17.531Z,90.80
2018-03-31T21:43:45.442Z,90.30
2018-03-31T21:46:13.276Z,90.10
2018-03-31T21:48:41.630Z,90.70
2018-03-31T21:51:09.222Z,90.60
2018-03-31T21:53:36.900Z,90.90
2018-03-31T21:56:04.649Z,90.70
2018-03-31T21:58:32.198Z,90.50
2018-03-31T22:00:59.761Z,90.30
2018-03-31T22:03:27.354Z,90.30
2018-03-31T22:05:54.910Z,90.30
2018-03-31T22:08:22.462Z,90.30
2018-03-31T22:10:50.260Z,90.50
2018-03-31T22:13:23.431Z,90.40
2018-03-31T22:15:51.066Z,90.50
2018-03-31T22:18:19.000Z,90.50
2018-03-31T22:20:46.953Z,90.60
2018-03-31T22:23:14.745Z,90.40
2018-03-31T22:25:42.440Z,90.40
2018-03-31T22:28:10.039Z,90.10
2018-03-31T22:30:37.591Z,90.20
2018-03-31T22:33:05.255Z,90.40
2018-03-31T22:35:32.814Z,90.10
2018-03-31T22:38:00.366Z,89.80
2018-03-31T22:40:27.952Z,90.10
2018-03-31T22:42:55.542Z,89.80
2018-03-31T22:45:23.187Z,90.00
2018-03-31T22:47:51.534Z,90.40
2018-03-31T22:50:19.400Z,90.20
2018-03-31T22:52:47.110Z,90.30
2018-03-31T22:55:14.979Z,90.50
2018-03-31T22:57:42.976Z,90.30
2018-03-31T23:00:10.626Z,89.40
2018-03-31T23:02:38.553Z,89.80
2018-03-31T23:05:06.355Z,89.20
2018-03-31T23:07:34.330Z,90.10
2018-03-31T23:10:02.241Z,90.30
2018-03-31T23:12:30.102Z,90.30
2018-03-31T23:14:57.939Z,90.70
2018-03-31T23:17:25.813Z,90.60
2018-03-31T23:19:53.651Z,90.40
2018-03-31T23:22:22.316Z,90.70
2018-03-31T23:24:50.408Z,90.60
2018-03-31T23:27:19.058Z,90.50
2018-03-31T23:29:47.823Z,90.40
2018-03-31T23:32:15.836Z,90.40
2018-03-31T23:34:43.835Z,90.10
2018-03-31T23:37:11.711Z,90.60
2018-03-31T23:39:39.297Z,90.60
2018-03-31T23:42:06.976Z,90.50
2018-03-31T23:44:35.395Z,90.20
2018-03-31T23:47:03.010Z,90.20
2018-03-31T23:49:30.577Z,90.60
2018-03-31T23:51:58.165Z,90.90
2018-03-31T23:54:25.756Z,90.70
2018-03-31T23:56:53.318Z,90.70
2018-03-31T23:59:21.150Z,90.80
